Time;durP1;ratioP1;P1;durP2;ratioP2;P2;SDS_P1;SDS_P2;PMS_P1;PMS_P2;Temp;Humidity;BMP_temperature;BMP_pressure;BME280_temperature;BME280_humidity;BME280_pressure;Samples;Min_cycle;Max_cycle;Signal;HPM_P1;HPM_P2
2024/03/26 00:00:12;;;;;;;3.78;1.50;;;;;;;;;;517241;28;1543;-77
2024/03/26 00:00:27;;;;;;;4.28;1.60;;;;;;;;;;519008;28;1142;-77
2024/03/26 00:00:42;;;;;;;4.53;1.70;;;;;;;;;;516540;28;1530;-78
2024/03/26 00:00:58;;;;;;;4.57;1.73;;;;;;;;;;517594;28;1504;-78
2024/03/26 00:01:13;;;;;;;3.87;1.70;;;;;;;;;;518857;28;1549;-78
2024/03/26 00:01:29;;;;;;;3.13;1.50;;;;;;;;;;516968;28;1328;-78
2024/03/26 00:01:44;;;;;;;3.73;1.40;;;;;;;;;;516552;28;1365;-78
2024/03/26 00:02:02;;;;;;;3.70;1.60;;;;;;;;;;514948;28;1358;-78
2024/03/26 00:02:18;;;;;;;3.90;1.60;;;;;;;;;;512442;28;1612;-77
2024/03/26 00:02:33;;;;;;;4.65;1.67;;;;;;;;;;512754;28;1263;-78
2024/03/26 00:02:48;;;;;;;3.90;1.63;;;;;;;;;;512969;28;1489;-77
2024/03/26 00:03:04;;;;;;;3.23;1.47;;;;;;;;;;513018;28;1284;-77
2024/03/26 00:03:19;;;;;;;3.08;1.50;;;;;;;;;;513358;28;1522;-78
2024/03/26 00:03:35;;;;;;;3.10;1.50;;;;;;;;;;515638;28;1359;-78
2024/03/26 00:03:50;;;;;;;4.13;1.80;;;;;;;;;;517206;28;1566;-77
2024/03/26 00:04:05;;;;;;;5.07;1.90;;;;;;;;;;517424;28;1544;-77
2024/03/26 00:04:20;;;;;;;4.20;1.70;;;;;;;;;;518812;28;1587;-78
2024/03/26 00:04:36;;;;;;;3.00;1.60;;;;;;;;;;516490;28;1179;-76
2024/03/26 00:04:51;;;;;;;3.25;1.50;;;;;;;;;;516791;28;1511;-78
2024/03/26 00:05:08;;;;;;;3.47;1.50;;;;;;;;;;516549;28;1750;-77
2024/03/26 00:05:23;;;;;;;3.20;1.60;;;;;;;;;;512509;28;1591;-78
2024/03/26 00:05:39;;;;;;;3.83;1.60;;;;;;;;;;513384;28;1677;-77
2024/03/26 00:05:56;;;;;;;4.47;1.60;;;;;;;;;;512224;28;1463;-77
2024/03/26 00:06:11;;;;;;;5.75;1.58;;;;;;;;;;512744;28;1489;-78
2024/03/26 00:06:27;;;;;;;2.63;1.40;;;;;;;;;;510905;28;1233;-77
2024/03/26 00:06:42;;;;;;;2.70;1.25;;;;;;;;;;510564;28;1526;-77
2024/03/26 00:06:57;;;;;;;3.93;1.50;;;;;;;;;;512429;28;1481;-77
2024/03/26 00:07:13;;;;;;;3.50;1.70;;;;;;;;;;512698;28;1498;-78
2024/03/26 00:07:28;;;;;;;3.10;1.60;;;;;;;;;;512857;28;1237;-76
2024/03/26 00:07:43;;;;;;;4.32;1.70;;;;;;;;;;511545;28;1427;-77
2024/03/26 00:07:58;;;;;;;5.20;1.93;;;;;;;;;;511728;28;1479;-77
2024/03/26 00:08:14;;;;;;;5.07;2.00;;;;;;;;;;511190;29;1308;-77
2024/03/26 00:08:29;;;;;;;4.47;1.80;;;;;;;;;;511028;28;1240;-77
2024/03/26 00:08:44;;;;;;;3.57;1.70;;;;;;;;;;511584;28;1273;-78
2024/03/26 00:09:00;;;;;;;3.33;1.70;;;;;;;;;;513215;28;1365;-77
2024/03/26 00:09:15;;;;;;;3.95;1.60;;;;;;;;;;515507;28;1386;-76
2024/03/26 00:09:30;;;;;;;3.70;1.50;;;;;;;;;;514966;28;1239;-77
2024/03/26 00:09:45;;;;;;;2.97;1.47;;;;;;;;;;514651;28;1472;-78
2024/03/26 00:10:02;;;;;;;3.57;1.67;;;;;;;;;;515285;28;1473;-77
2024/03/26 00:10:17;;;;;;;3.65;1.60;;;;;;;;;;515562;28;1438;-77
2024/03/26 00:10:33;;;;;;;3.23;1.47;;;;;;;;;;516203;28;1087;-77
2024/03/26 00:10:48;;;;;;;4.22;1.77;;;;;;;;;;517373;28;1412;-78
2024/03/26 00:11:04;;;;;;;4.03;1.70;;;;;;;;;;516771;28;1556;-77
2024/03/26 00:11:22;;;;;;;4.32;1.70;;;;;;;;;;515605;28;1303;-77
2024/03/26 00:11:38;;;;;;;3.75;1.70;;;;;;;;;;515728;28;1790;-78
2024/03/26 00:11:53;;;;;;;3.20;1.63;;;;;;;;;;514859;28;1489;-77
2024/03/26 00:12:08;;;;;;;2.97;1.53;;;;;;;;;;516187;28;1370;-77
2024/03/26 00:12:24;;;;;;;2.70;1.40;;;;;;;;;;517254;28;1287;-77
2024/03/26 00:12:39;;;;;;;2.72;1.33;;;;;;;;;;517348;28;1519;-77
2024/03/26 00:12:54;;;;;;;3.57;1.50;;;;;;;;;;516165;28;1500;-77
2024/03/26 00:13:10;;;;;;;3.57;1.67;;;;;;;;;;517096;28;1532;-77
2024/03/26 00:13:25;;;;;;;2.65;1.48;;;;;;;;;;517113;28;1115;-78
2024/03/26 00:13:41;;;;;;;2.97;1.43;;;;;;;;;;516985;28;1528;-77
2024/03/26 00:13:56;;;;;;;3.60;1.70;;;;;;;;;;519268;28;1525;-78
2024/03/26 00:14:11;;;;;;;3.53;1.73;;;;;;;;;;518908;28;1550;-77
2024/03/26 00:14:27;;;;;;;3.33;1.60;;;;;;;;;;518915;28;1364;-77
2024/03/26 00:14:42;;;;;;;3.17;1.50;;;;;;;;;;515369;28;1578;-78
2024/03/26 00:14:57;;;;;;;3.33;1.50;;;;;;;;;;518258;28;1561;-75
2024/03/26 00:15:13;;;;;;;3.43;1.57;;;;;;;;;;518430;28;1527;-77
2024/03/26 00:15:28;;;;;;;4.28;2.30;;;;;;;;;;517487;28;1416;-77
2024/03/26 00:15:43;;;;;;;4.77;3.10;;;;;;;;;;514716;28;1604;-77
2024/03/26 00:15:58;;;;;;;4.53;2.67;;;;;;;;;;515399;28;1214;-78
2024/03/26 00:16:14;;;;;;;4.75;2.00;;;;;;;;;;514289;28;1493;-77
2024/03/26 00:16:29;;;;;;;4.63;2.03;;;;;;;;;;510957;28;1329;-78
2024/03/26 00:16:45;;;;;;;4.73;2.10;;;;;;;;;;513155;28;1437;-78
2024/03/26 00:17:01;;;;;;;5.10;2.10;;;;;;;;;;512870;28;1564;-78
2024/03/26 00:17:16;;;;;;;4.57;1.90;;;;;;;;;;513105;28;1265;-77
2024/03/26 00:17:32;;;;;;;3.70;1.83;;;;;;;;;;513128;28;1355;-77
2024/03/26 00:17:47;;;;;;;3.13;1.90;;;;;;;;;;513358;28;1903;-77
2024/03/26 00:18:03;;;;;;;3.73;1.70;;;;;;;;;;513097;28;1560;-78
2024/03/26 00:18:18;;;;;;;4.40;1.70;;;;;;;;;;515952;28;1064;-81
2024/03/26 00:18:34;;;;;;;3.63;1.60;;;;;;;;;;517159;28;1085;-78
2024/03/26 00:18:49;;;;;;;2.77;1.40;;;;;;;;;;517465;28;1145;-78
2024/03/26 00:19:04;;;;;;;3.87;1.57;;;;;;;;;;515467;28;1319;-78
2024/03/26 00:19:19;;;;;;;4.23;1.73;;;;;;;;;;515025;28;1673;-78
2024/03/26 00:19:35;;;;;;;3.58;1.70;;;;;;;;;;515308;28;894;-78
2024/03/26 00:19:50;;;;;;;4.17;2.00;;;;;;;;;;514837;28;1694;-79
2024/03/26 00:20:05;;;;;;;4.13;2.10;;;;;;;;;;513602;28;1183;-77
2024/03/26 00:20:21;;;;;;;4.43;2.10;;;;;;;;;;513285;28;1164;-78
2024/03/26 00:20:36;;;;;;;4.70;2.00;;;;;;;;;;513473;28;1081;-78
2024/03/26 00:20:51;;;;;;;4.63;1.93;;;;;;;;;;515439;28;1161;-78
2024/03/26 00:21:07;;;;;;;4.03;2.00;;;;;;;;;;515418;28;1319;-78
2024/03/26 00:21:22;;;;;;;3.17;1.77;;;;;;;;;;515148;28;1297;-77
2024/03/26 00:21:37;;;;;;;3.73;1.83;;;;;;;;;;515262;28;1236;-77
2024/03/26 00:21:53;;;;;;;3.90;1.92;;;;;;;;;;515532;28;1064;-77
2024/03/26 00:22:08;;;;;;;4.47;1.80;;;;;;;;;;515198;28;1214;-77
2024/03/26 00:22:25;;;;;;;4.47;1.80;;;;;;;;;;515302;28;978;-77
2024/03/26 00:22:41;;;;;;;4.20;1.77;;;;;;;;;;513273;28;887;-77
2024/03/26 00:22:56;;;;;;;4.63;1.80;;;;;;;;;;513847;28;855;-77
2024/03/26 00:23:13;;;;;;;4.20;1.90;;;;;;;;;;513398;28;1414;-78
2024/03/26 00:23:28;;;;;;;3.92;1.88;;;;;;;;;;515260;28;1268;-77
2024/03/26 00:23:44;;;;;;;3.53;1.70;;;;;;;;;;515371;28;1165;-77
2024/03/26 00:23:59;;;;;;;3.57;1.67;;;;;;;;;;513195;28;2043;-77
2024/03/26 00:24:14;;;;;;;4.40;2.10;;;;;;;;;;515496;28;847;-77
2024/03/26 00:24:29;;;;;;;4.90;2.60;;;;;;;;;;513166;28;1270;-77
2024/03/26 00:24:45;;;;;;;4.60;2.53;;;;;;;;;;511195;29;1217;-77
2024/03/26 00:25:00;;;;;;;5.13;3.10;;;;;;;;;;513259;28;1129;-77
2024/03/26 00:25:15;;;;;;;6.03;3.90;;;;;;;;;;511260;29;1380;-77
2024/03/26 00:25:31;;;;;;;4.93;3.30;;;;;;;;;;511213;29;1286;-77
2024/03/26 00:25:48;;;;;;;3.17;2.37;;;;;;;;;;513022;28;1218;-77
2024/03/26 00:26:03;;;;;;;3.47;2.00;;;;;;;;;;513349;28;1008;-77
2024/03/26 00:26:19;;;;;;;4.27;1.87;;;;;;;;;;513188;28;1224;-78
2024/03/26 00:26:35;;;;;;;4.90;1.70;;;;;;;;;;513794;28;1093;-77
2024/03/26 00:26:51;;;;;;;4.05;1.52;;;;;;;;;;515245;28;1020;-77
2024/03/26 00:27:07;;;;;;;3.75;1.70;;;;;;;;;;516229;28;934;-77
2024/03/26 00:27:22;;;;;;;3.70;1.77;;;;;;;;;;515909;28;1195;-78
2024/03/26 00:27:37;;;;;;;3.93;1.83;;;;;;;;;;514998;28;1197;-77
2024/03/26 00:27:52;;;;;;;4.65;2.10;;;;;;;;;;515477;28;843;-77
2024/03/26 00:28:08;;;;;;;4.77;2.23;;;;;;;;;;515937;28;1247;-77
2024/03/26 00:28:23;;;;;;;4.17;2.17;;;;;;;;;;517267;28;1120;-77
2024/03/26 00:28:38;;;;;;;3.42;1.98;;;;;;;;;;517157;28;1180;-77
2024/03/26 00:28:54;;;;;;;4.03;1.90;;;;;;;;;;517350;28;1092;-78
2024/03/26 00:29:10;;;;;;;4.45;1.92;;;;;;;;;;517302;28;1116;-78
2024/03/26 00:29:25;;;;;;;4.20;1.93;;;;;;;;;;517332;28;1064;-78
2024/03/26 00:29:40;;;;;;;5.03;2.00;;;;;;;;;;516932;28;1300;-79
2024/03/26 00:29:56;;;;;;;4.93;2.17;;;;;;;;;;515522;28;1242;-79
2024/03/26 00:30:11;;;;;;;6.03;2.20;;;;;;;;;;517549;28;1250;-80
2024/03/26 00:30:26;;;;;;;5.55;1.90;;;;;;;;;;515077;28;1251;-79
2024/03/26 00:30:42;;;;;;;4.00;1.70;;;;;;;;;;515342;28;1283;-79
2024/03/26 00:30:57;;;;;;;4.23;1.80;;;;;;;;;;515332;28;988;-79
2024/03/26 00:31:13;;;;;;;3.85;2.00;;;;;;;;;;515474;28;997;-79
2024/03/26 00:31:33;;;;;;;5.67;3.20;;;;;;;;;;514986;28;1214;-78
2024/03/26 00:31:48;;;;;;;12.23;6.63;;;;;;;;;;516280;28;930;-79
2024/03/26 00:32:04;;;;;;;10.77;5.53;;;;;;;;;;515268;28;1372;-79
2024/03/26 00:32:19;;;;;;;7.77;4.20;;;;;;;;;;509868;28;1725;-80
2024/03/26 00:32:34;;;;;;;8.18;4.80;;;;;;;;;;498972;28;1015;-80
2024/03/26 00:32:50;;;;;;;7.07;4.30;;;;;;;;;;499254;28;1163;-80
2024/03/26 00:33:05;;;;;;;6.05;3.20;;;;;;;;;;504121;28;1039;-80
2024/03/26 00:33:21;;;;;;;5.77;3.27;;;;;;;;;;500412;28;1041;-79
2024/03/26 00:33:36;;;;;;;7.20;4.22;;;;;;;;;;497550;28;1416;-80
2024/03/26 00:33:52;;;;;;;7.83;4.90;;;;;;;;;;498078;28;1161;-80
2024/03/26 00:34:07;;;;;;;7.20;4.60;;;;;;;;;;503144;28;1314;-80
2024/03/26 00:34:23;;;;;;;7.67;4.20;;;;;;;;;;503464;28;1315;-81
2024/03/26 00:34:40;;;;;;;7.00;3.72;;;;;;;;;;499778;28;1390;-81
2024/03/26 00:34:55;;;;;;;8.00;5.03;;;;;;;;;;501971;28;1308;-81
2024/03/26 00:35:11;;;;;;;8.57;5.70;;;;;;;;;;499814;28;1151;-80
2024/03/26 00:35:26;;;;;;;7.82;5.40;;;;;;;;;;500851;28;1170;-81
2024/03/26 00:35:42;;;;;;;8.03;5.50;;;;;;;;;;497651;28;1409;-81
2024/03/26 00:35:57;;;;;;;7.63;5.15;;;;;;;;;;501215;28;1320;-80
2024/03/26 00:36:13;;;;;;;6.87;4.63;;;;;;;;;;500890;28;1009;-81
2024/03/26 00:36:28;;;;;;;7.57;4.83;;;;;;;;;;500337;28;1256;-80
2024/03/26 00:36:44;;;;;;;6.70;4.10;;;;;;;;;;496132;28;1002;-81
2024/03/26 00:36:59;;;;;;;5.53;3.20;;;;;;;;;;502162;28;1212;-81
2024/03/26 00:37:15;;;;;;;5.80;3.20;;;;;;;;;;499350;28;1329;-80
2024/03/26 00:37:32;;;;;;;5.25;3.15;;;;;;;;;;499117;28;1220;-80
2024/03/26 00:37:47;;;;;;;5.28;3.03;;;;;;;;;;498111;28;1962;-80
2024/03/26 00:38:03;;;;;;;6.43;2.80;;;;;;;;;;501076;28;1167;-81
2024/03/26 00:38:19;;;;;;;5.72;2.67;;;;;;;;;;502092;28;1423;-81
2024/03/26 00:38:34;;;;;;;4.67;2.60;;;;;;;;;;501203;28;1235;-80
2024/03/26 00:38:49;;;;;;;3.97;2.28;;;;;;;;;;498650;28;1075;-80
2024/03/26 00:39:06;;;;;;;3.90;2.40;;;;;;;;;;500433;28;1011;-81
2024/03/26 00:39:22;;;;;;;4.63;2.30;;;;;;;;;;499163;28;1284;-80
2024/03/26 00:39:37;;;;;;;4.33;1.80;;;;;;;;;;498003;28;913;-80
2024/03/26 00:39:52;;;;;;;4.47;1.80;;;;;;;;;;499100;28;1034;-80
2024/03/26 00:40:08;;;;;;;4.13;1.77;;;;;;;;;;500051;28;973;-80
2024/03/26 00:40:24;;;;;;;3.83;1.67;;;;;;;;;;503346;28;1360;-80
2024/03/26 00:40:42;;;;;;;4.45;1.88;;;;;;;;;;500189;28;1208;-80
2024/03/26 00:40:58;;;;;;;4.40;1.85;;;;;;;;;;499630;28;1460;-81
2024/03/26 00:41:14;;;;;;;3.95;1.90;;;;;;;;;;501449;28;1165;-80
2024/03/26 00:41:29;;;;;;;3.28;1.95;;;;;;;;;;507285;28;1216;-80
2024/03/26 00:41:45;;;;;;;3.83;2.00;;;;;;;;;;498780;28;1196;-80
2024/03/26 00:42:00;;;;;;;3.80;1.80;;;;;;;;;;501494;28;970;-80
2024/03/26 00:42:16;;;;;;;3.27;1.83;;;;;;;;;;503033;28;1283;-80
2024/03/26 00:42:31;;;;;;;4.50;2.05;;;;;;;;;;501410;28;1192;-80
2024/03/26 00:42:47;;;;;;;5.07;2.00;;;;;;;;;;497382;28;1228;-80
2024/03/26 00:43:02;;;;;;;3.88;1.75;;;;;;;;;;501340;28;1025;-80
2024/03/26 00:43:18;;;;;;;2.80;1.60;;;;;;;;;;499151;28;1093;-80
2024/03/26 00:43:33;;;;;;;2.90;1.60;;;;;;;;;;498073;28;1280;-80
2024/03/26 00:43:49;;;;;;;3.23;1.70;;;;;;;;;;499498;28;1192;-82
2024/03/26 00:44:04;;;;;;;3.15;1.63;;;;;;;;;;500382;28;939;-80
2024/03/26 00:44:19;;;;;;;3.30;1.60;;;;;;;;;;503127;28;1415;-80
2024/03/26 00:44:35;;;;;;;3.08;1.60;;;;;;;;;;500558;28;1198;-80
2024/03/26 00:44:51;;;;;;;2.67;1.60;;;;;;;;;;496925;28;1089;-80
2024/03/26 00:45:06;;;;;;;2.90;1.50;;;;;;;;;;499499;28;1268;-80
2024/03/26 00:45:22;;;;;;;3.20;1.50;;;;;;;;;;497094;28;1384;-80
2024/03/26 00:45:37;;;;;;;2.75;1.58;;;;;;;;;;497621;28;1219;-80
2024/03/26 00:45:53;;;;;;;3.53;1.60;;;;;;;;;;499216;28;1348;-80
2024/03/26 00:46:08;;;;;;;3.47;1.50;;;;;;;;;;499207;28;1240;-80
2024/03/26 00:46:24;;;;;;;2.57;1.60;;;;;;;;;;500881;28;934;-81
2024/03/26 00:46:39;;;;;;;3.38;1.75;;;;;;;;;;495105;28;1329;-80
2024/03/26 00:46:55;;;;;;;4.60;1.77;;;;;;;;;;497927;28;1105;-80
2024/03/26 00:47:10;;;;;;;4.00;1.70;;;;;;;;;;500237;28;1298;-80
2024/03/26 00:47:26;;;;;;;3.40;1.73;;;;;;;;;;499726;28;949;-80
2024/03/26 00:47:41;;;;;;;4.03;1.80;;;;;;;;;;496736;28;1493;-80
2024/03/26 00:47:57;;;;;;;4.07;1.70;;;;;;;;;;501426;28;1247;-81
2024/03/26 00:48:12;;;;;;;3.63;1.60;;;;;;;;;;501488;28;956;-80
2024/03/26 00:48:28;;;;;;;3.30;1.57;;;;;;;;;;500698;28;1425;-81
2024/03/26 00:48:43;;;;;;;2.90;1.50;;;;;;;;;;499466;28;1220;-80
2024/03/26 00:48:59;;;;;;;3.45;1.55;;;;;;;;;;499994;28;906;-80
2024/03/26 00:49:14;;;;;;;4.80;1.70;;;;;;;;;;500779;28;930;-80
2024/03/26 00:49:30;;;;;;;4.28;1.70;;;;;;;;;;499690;28;1317;-81
2024/03/26 00:49:46;;;;;;;2.80;1.50;;;;;;;;;;496578;28;1049;-80
2024/03/26 00:50:01;;;;;;;3.13;1.40;;;;;;;;;;500733;28;926;-80
2024/03/26 00:50:18;;;;;;;4.60;1.70;;;;;;;;;;501532;28;928;-80
2024/03/26 00:50:33;;;;;;;4.13;1.85;;;;;;;;;;501581;28;1342;-80
2024/03/26 00:50:49;;;;;;;3.85;1.70;;;;;;;;;;503176;28;1128;-80
2024/03/26 00:51:04;;;;;;;4.67;1.57;;;;;;;;;;501657;28;1192;-81
2024/03/26 00:51:20;;;;;;;4.78;1.63;;;;;;;;;;502157;28;1203;-81
2024/03/26 00:51:35;;;;;;;3.50;1.57;;;;;;;;;;498257;28;1177;-80
2024/03/26 00:51:51;;;;;;;2.58;1.55;;;;;;;;;;495911;28;1319;-80
2024/03/26 00:52:06;;;;;;;3.20;1.80;;;;;;;;;;497993;28;1153;-80
2024/03/26 00:52:22;;;;;;;3.35;1.73;;;;;;;;;;497334;28;1113;-80
2024/03/26 00:52:37;;;;;;;3.07;1.60;;;;;;;;;;498813;28;1168;-80
2024/03/26 00:52:53;;;;;;;2.90;1.50;;;;;;;;;;495062;28;1048;-80
2024/03/26 00:53:09;;;;;;;3.07;1.50;;;;;;;;;;498642;28;992;-81
2024/03/26 00:53:25;;;;;;;3.30;1.52;;;;;;;;;;499913;28;1115;-80
2024/03/26 00:53:40;;;;;;;3.10;1.50;;;;;;;;;;498708;28;1215;-80
2024/03/26 00:53:56;;;;;;;3.22;1.60;;;;;;;;;;498434;28;1319;-81
2024/03/26 00:54:11;;;;;;;3.90;1.60;;;;;;;;;;498199;28;1183;-81
2024/03/26 00:54:27;;;;;;;4.28;1.70;;;;;;;;;;500383;28;1108;-81
2024/03/26 00:54:42;;;;;;;3.63;1.80;;;;;;;;;;499318;28;1009;-81
2024/03/26 00:54:58;;;;;;;4.13;1.90;;;;;;;;;;501471;28;1200;-81
2024/03/26 00:55:15;;;;;;;3.83;1.90;;;;;;;;;;503842;28;1300;-81
2024/03/26 00:55:31;;;;;;;2.70;1.65;;;;;;;;;;500426;28;1453;-80
2024/03/26 00:55:46;;;;;;;2.93;1.73;;;;;;;;;;498842;28;962;-80
2024/03/26 00:56:02;;;;;;;4.05;2.00;;;;;;;;;;498999;28;1229;-80
2024/03/26 00:56:17;;;;;;;5.80;2.13;;;;;;;;;;498926;28;1186;-80
2024/03/26 00:56:33;;;;;;;5.22;2.00;;;;;;;;;;499925;28;1333;-80
2024/03/26 00:56:48;;;;;;;3.53;1.90;;;;;;;;;;496388;28;1143;-81
2024/03/26 00:57:04;;;;;;;4.00;1.98;;;;;;;;;;497916;28;1260;-80
2024/03/26 00:57:19;;;;;;;4.07;1.90;;;;;;;;;;497214;28;1237;-80
2024/03/26 00:57:35;;;;;;;3.38;1.90;;;;;;;;;;498614;28;1009;-80
2024/03/26 00:57:51;;;;;;;3.47;1.80;;;;;;;;;;497785;28;1936;-80
2024/03/26 00:58:06;;;;;;;6.22;1.90;;;;;;;;;;497465;28;935;-80
2024/03/26 00:58:22;;;;;;;6.30;1.80;;;;;;;;;;499277;28;1238;-80
2024/03/26 00:58:37;;;;;;;4.07;1.63;;;;;;;;;;497717;28;957;-80
2024/03/26 00:58:53;;;;;;;4.07;1.67;;;;;;;;;;496336;28;1411;-80
2024/03/26 00:59:09;;;;;;;4.55;1.90;;;;;;;;;;497944;28;1221;-81
2024/03/26 00:59:24;;;;;;;5.27;1.90;;;;;;;;;;499465;28;1305;-81
2024/03/26 00:59:39;;;;;;;4.30;1.67;;;;;;;;;;496743;28;1229;-80
2024/03/26 00:59:55;;;;;;;3.60;1.80;;;;;;;;;;498586;28;1059;-80
2024/03/26 01:00:11;;;;;;;3.47;2.00;;;;;;;;;;497953;28;1277;-80
2024/03/26 01:00:27;;;;;;;4.30;2.08;;;;;;;;;;496713;28;1260;-80
2024/03/26 01:00:42;;;;;;;5.27;2.10;;;;;;;;;;495750;28;1296;-80
2024/03/26 01:00:57;;;;;;;4.10;1.90;;;;;;;;;;499640;28;1023;-80
2024/03/26 01:01:13;;;;;;;3.50;1.80;;;;;;;;;;503342;28;1179;-80
2024/03/26 01:01:28;;;;;;;4.63;1.95;;;;;;;;;;501785;28;1085;-80
2024/03/26 01:01:44;;;;;;;4.33;2.00;;;;;;;;;;496995;28;1024;-80
2024/03/26 01:01:59;;;;;;;3.85;1.80;;;;;;;;;;498336;28;1191;-80
2024/03/26 01:02:15;;;;;;;4.57;2.10;;;;;;;;;;498733;28;1059;-80
2024/03/26 01:02:31;;;;;;;3.67;1.90;;;;;;;;;;503020;28;980;-80
2024/03/26 01:02:47;;;;;;;3.20;1.70;;;;;;;;;;498036;28;1338;-80
2024/03/26 01:03:02;;;;;;;3.90;1.97;;;;;;;;;;500790;28;1289;-80
2024/03/26 01:03:18;;;;;;;3.40;2.03;;;;;;;;;;501025;28;1362;-80
2024/03/26 01:03:33;;;;;;;3.60;1.97;;;;;;;;;;498747;28;1186;-80
2024/03/26 01:03:51;;;;;;;3.70;1.90;;;;;;;;;;497101;28;1620;-80
2024/03/26 01:04:07;;;;;;;4.13;2.08;;;;;;;;;;497895;28;1033;-80
2024/03/26 01:04:25;;;;;;;4.07;2.30;;;;;;;;;;499965;28;1187;-80
2024/03/26 01:04:40;;;;;;;4.32;2.30;;;;;;;;;;494559;28;1075;-81
2024/03/26 01:04:56;;;;;;;3.50;2.07;;;;;;;;;;496582;28;1303;-81
2024/03/26 01:05:11;;;;;;;4.28;2.15;;;;;;;;;;496749;28;1193;-80
2024/03/26 01:05:27;;;;;;;4.37;2.20;;;;;;;;;;499524;28;1063;-80
2024/03/26 01:05:56;;;;;;;3.95;2.10;;;;;;;;;;496430;28;976;-81
2024/03/26 01:06:13;;;;;;;4.35;2.03;;;;;;;;;;501162;28;1024;-80
2024/03/26 01:06:28;;;;;;;3.90;1.80;;;;;;;;;;500859;28;959;-80
2024/03/26 01:06:44;;;;;;;4.45;1.70;;;;;;;;;;500010;28;1262;-80
2024/03/26 01:06:59;;;;;;;4.60;1.70;;;;;;;;;;499171;28;1097;-80
2024/03/26 01:07:15;;;;;;;3.28;1.80;;;;;;;;;;497495;28;1138;-80
2024/03/26 01:07:30;;;;;;;3.72;1.77;;;;;;;;;;498332;28;1249;-80
2024/03/26 01:07:46;;;;;;;3.13;1.60;;;;;;;;;;495468;28;1020;-80
2024/03/26 01:08:01;;;;;;;2.30;1.38;;;;;;;;;;498342;28;1080;-80
2024/03/26 01:08:17;;;;;;;2.50;1.40;;;;;;;;;;497102;28;981;-80
2024/03/26 01:08:32;;;;;;;3.45;1.50;;;;;;;;;;496987;28;1113;-80
2024/03/26 01:08:48;;;;;;;4.03;1.60;;;;;;;;;;497837;28;1109;-81
2024/03/26 01:09:03;;;;;;;3.40;1.50;;;;;;;;;;501894;28;1001;-80
2024/03/26 01:09:19;;;;;;;3.47;1.60;;;;;;;;;;501172;28;1176;-80
2024/03/26 01:09:35;;;;;;;4.18;1.60;;;;;;;;;;503242;28;1206;-80
2024/03/26 01:09:50;;;;;;;3.53;1.40;;;;;;;;;;499149;28;1218;-80
2024/03/26 01:10:06;;;;;;;3.60;1.40;;;;;;;;;;501428;28;1137;-81
2024/03/26 01:10:22;;;;;;;4.32;1.60;;;;;;;;;;500859;28;1352;-80
2024/03/26 01:10:37;;;;;;;3.88;1.70;;;;;;;;;;499138;28;1184;-80
2024/03/26 01:10:54;;;;;;;4.13;1.70;;;;;;;;;;497552;28;1109;-80
2024/03/26 01:11:12;;;;;;;4.05;1.63;;;;;;;;;;498952;28;1071;-80
2024/03/26 01:11:28;;;;;;;2.85;1.50;;;;;;;;;;500995;28;1008;-81
2024/03/26 01:11:45;;;;;;;3.65;1.70;;;;;;;;;;498754;28;1219;-81
2024/03/26 01:12:01;;;;;;;4.35;1.80;;;;;;;;;;499977;28;1408;-80
2024/03/26 01:12:16;;;;;;;4.35;1.80;;;;;;;;;;500663;28;1147;-80
2024/03/26 01:12:32;;;;;;;3.43;1.67;;;;;;;;;;499889;28;1445;-80
2024/03/26 01:12:47;;;;;;;3.15;1.48;;;;;;;;;;498312;28;1068;-81
2024/03/26 01:13:03;;;;;;;3.33;1.50;;;;;;;;;;500109;28;1374;-81
2024/03/26 01:13:19;;;;;;;3.47;1.50;;;;;;;;;;498954;28;1157;-80
2024/03/26 01:13:35;;;;;;;4.10;1.55;;;;;;;;;;499401;28;1072;-80
2024/03/26 01:13:52;;;;;;;3.75;1.60;;;;;;;;;;497892;28;1073;-80
2024/03/26 01:14:07;;;;;;;3.20;1.70;;;;;;;;;;497324;28;1354;-80
2024/03/26 01:14:23;;;;;;;3.43;1.60;;;;;;;;;;498697;28;996;-81
2024/03/26 01:14:38;;;;;;;2.90;1.40;;;;;;;;;;499127;28;1193;-80
2024/03/26 01:14:54;;;;;;;2.67;1.33;;;;;;;;;;498862;28;1184;-80
2024/03/26 01:15:09;;;;;;;3.08;1.30;;;;;;;;;;502946;28;1361;-81
2024/03/26 01:15:25;;;;;;;3.03;1.30;;;;;;;;;;500465;28;1142;-80
2024/03/26 01:15:41;;;;;;;3.10;1.50;;;;;;;;;;496538;28;1334;-80
2024/03/26 01:15:56;;;;;;;2.92;1.52;;;;;;;;;;498928;28;1533;-81
2024/03/26 01:16:12;;;;;;;3.10;1.50;;;;;;;;;;494328;29;1259;-80
2024/03/26 01:16:27;;;;;;;2.83;1.58;;;;;;;;;;494630;28;1080;-80
2024/03/26 01:16:43;;;;;;;3.37;1.70;;;;;;;;;;493877;28;1442;-81
2024/03/26 01:16:58;;;;;;;3.27;1.60;;;;;;;;;;494492;29;1378;-80
2024/03/26 01:17:14;;;;;;;2.85;1.50;;;;;;;;;;495856;28;1320;-81
2024/03/26 01:17:29;;;;;;;3.00;1.50;;;;;;;;;;495512;28;1211;-80
2024/03/26 01:17:45;;;;;;;4.00;1.60;;;;;;;;;;496867;28;1958;-80
2024/03/26 01:18:00;;;;;;;4.93;1.67;;;;;;;;;;499927;28;906;-80
2024/03/26 01:18:16;;;;;;;4.20;1.58;;;;;;;;;;499813;28;949;-80
2024/03/26 01:18:32;;;;;;;3.50;1.50;;;;;;;;;;499999;28;1319;-81
2024/03/26 01:18:47;;;;;;;3.60;1.60;;;;;;;;;;496781;28;1051;-80
2024/03/26 01:19:03;;;;;;;3.00;1.43;;;;;;;;;;496273;28;1247;-80
2024/03/26 01:19:18;;;;;;;3.05;1.42;;;;;;;;;;496782;28;1182;-81
2024/03/26 01:19:33;;;;;;;3.13;1.53;;;;;;;;;;496189;28;1054;-80
2024/03/26 01:19:49;;;;;;;3.13;1.40;;;;;;;;;;493399;28;1070;-80
2024/03/26 01:20:06;;;;;;;3.20;1.50;;;;;;;;;;496230;28;1044;-81
2024/03/26 01:20:21;;;;;;;2.58;1.55;;;;;;;;;;496239;28;1142;-80
2024/03/26 01:20:37;;;;;;;2.88;1.50;;;;;;;;;;494965;28;1033;-80
2024/03/26 01:20:53;;;;;;;3.03;1.40;;;;;;;;;;495938;28;1322;-80
2024/03/26 01:21:08;;;;;;;3.63;1.53;;;;;;;;;;498983;28;1205;-81
2024/03/26 01:21:24;;;;;;;4.60;1.73;;;;;;;;;;497368;28;1346;-80
2024/03/26 01:21:40;;;;;;;4.37;1.90;;;;;;;;;;495766;28;1307;-80
2024/03/26 01:21:56;;;;;;;3.90;2.00;;;;;;;;;;497814;28;1405;-80
2024/03/26 01:22:11;;;;;;;3.43;1.73;;;;;;;;;;496460;28;1140;-80
2024/03/26 01:22:27;;;;;;;2.83;1.52;;;;;;;;;;496433;28;1094;-80
2024/03/26 01:22:42;;;;;;;2.97;1.47;;;;;;;;;;493038;28;1148;-80
2024/03/26 01:22:58;;;;;;;3.67;1.70;;;;;;;;;;497905;28;1121;-80
2024/03/26 01:23:14;;;;;;;4.38;1.80;;;;;;;;;;496735;28;1064;-80
2024/03/26 01:23:29;;;;;;;3.90;1.60;;;;;;;;;;497607;28;997;-80
2024/03/26 01:23:45;;;;;;;2.85;1.60;;;;;;;;;;496294;28;1056;-80
2024/03/26 01:24:00;;;;;;;3.37;1.50;;;;;;;;;;499379;28;1247;-80
2024/03/26 01:24:16;;;;;;;3.28;1.48;;;;;;;;;;498439;28;1328;-80
2024/03/26 01:24:31;;;;;;;3.10;1.50;;;;;;;;;;497915;28;1125;-80
2024/03/26 01:24:47;;;;;;;3.53;1.55;;;;;;;;;;496644;28;1265;-81
2024/03/26 01:25:02;;;;;;;3.73;1.60;;;;;;;;;;498848;28;1017;-80
2024/03/26 01:25:18;;;;;;;3.53;1.63;;;;;;;;;;499307;28;1145;-80
2024/03/26 01:25:33;;;;;;;4.23;1.87;;;;;;;;;;500475;28;994;-80
2024/03/26 01:25:49;;;;;;;4.18;1.77;;;;;;;;;;499340;28;1084;-80
2024/03/26 01:26:05;;;;;;;4.00;1.70;;;;;;;;;;501684;28;977;-81
2024/03/26 01:26:20;;;;;;;4.67;1.80;;;;;;;;;;502528;28;929;-80
2024/03/26 01:26:36;;;;;;;3.47;1.50;;;;;;;;;;499628;28;1175;-80
2024/03/26 01:26:51;;;;;;;2.50;1.40;;;;;;;;;;498042;28;1311;-80
2024/03/26 01:27:07;;;;;;;2.67;1.50;;;;;;;;;;499300;28;1346;-80
2024/03/26 01:27:23;;;;;;;2.58;1.40;;;;;;;;;;496099;28;1353;-80
2024/03/26 01:27:38;;;;;;;2.63;1.50;;;;;;;;;;496580;28;1311;-80
2024/03/26 01:27:55;;;;;;;2.75;1.50;;;;;;;;;;497234;28;874;-79
2024/03/26 01:28:10;;;;;;;2.40;1.50;;;;;;;;;;496869;28;1329;-80
2024/03/26 01:28:26;;;;;;;2.90;1.80;;;;;;;;;;497767;28;994;-80
2024/03/26 01:28:41;;;;;;;3.70;1.70;;;;;;;;;;493157;28;1179;-80
2024/03/26 01:28:58;;;;;;;4.10;1.65;;;;;;;;;;497526;28;1066;-80
2024/03/26 01:29:13;;;;;;;3.13;1.60;;;;;;;;;;496771;28;1191;-80
2024/03/26 01:29:29;;;;;;;2.90;1.60;;;;;;;;;;496227;28;1167;-80
2024/03/26 01:29:44;;;;;;;3.20;1.77;;;;;;;;;;493261;28;1321;-80
2024/03/26 01:30:00;;;;;;;3.10;1.80;;;;;;;;;;495619;28;988;-80
2024/03/26 01:30:15;;;;;;;3.50;1.90;;;;;;;;;;499276;28;1126;-80
2024/03/26 01:30:31;;;;;;;3.47;1.70;;;;;;;;;;497338;28;1193;-81
2024/03/26 01:30:46;;;;;;;3.10;1.50;;;;;;;;;;497962;28;1213;-80
2024/03/26 01:31:02;;;;;;;4.47;1.63;;;;;;;;;;497209;28;1231;-80
2024/03/26 01:31:18;;;;;;;4.50;1.60;;;;;;;;;;495942;28;1002;-80
2024/03/26 01:31:33;;;;;;;2.93;1.50;;;;;;;;;;497544;28;971;-80
2024/03/26 01:31:49;;;;;;;3.00;1.50;;;;;;;;;;495777;28;1034;-80
2024/03/26 01:32:04;;;;;;;3.13;1.50;;;;;;;;;;498506;28;897;-80
2024/03/26 01:32:20;;;;;;;2.67;1.55;;;;;;;;;;498328;28;1263;-80
2024/03/26 01:32:35;;;;;;;2.70;1.52;;;;;;;;;;497200;28;1076;-80
2024/03/26 01:32:51;;;;;;;3.40;1.57;;;;;;;;;;497707;28;962;-81
2024/03/26 01:33:06;;;;;;;3.38;1.45;;;;;;;;;;500234;28;1136;-81
2024/03/26 01:33:22;;;;;;;3.70;1.50;;;;;;;;;;499663;28;1166;-80
2024/03/26 01:33:40;;;;;;;4.07;1.60;;;;;;;;;;499949;28;1097;-80
2024/03/26 01:33:55;;;;;;;3.22;1.65;;;;;;;;;;499481;28;1362;-80
2024/03/26 01:34:11;;;;;;;3.13;1.70;;;;;;;;;;498750;28;1276;-80
2024/03/26 01:34:27;;;;;;;4.32;2.10;;;;;;;;;;500262;28;1274;-80
2024/03/26 01:34:42;;;;;;;4.40;2.57;;;;;;;;;;498939;28;1004;-80
2024/03/26 01:34:58;;;;;;;4.22;2.25;;;;;;;;;;499684;28;1058;-80
2024/03/26 01:35:14;;;;;;;3.75;1.90;;;;;;;;;;497770;28;1224;-80
2024/03/26 01:35:29;;;;;;;3.80;2.03;;;;;;;;;;498117;28;1305;-80
2024/03/26 01:35:52;;;;;;;3.37;1.80;;;;;;;;;;496684;28;1379;-80
2024/03/26 01:36:08;;;;;;;3.33;1.60;;;;;;;;;;498063;28;1206;-80
2024/03/26 01:36:23;;;;;;;3.77;1.80;;;;;;;;;;498135;28;1336;-80
2024/03/26 01:36:39;;;;;;;3.53;1.85;;;;;;;;;;495429;28;1228;-80
2024/03/26 01:36:54;;;;;;;3.47;1.80;;;;;;;;;;497685;28;899;-80
2024/03/26 01:37:10;;;;;;;3.17;1.77;;;;;;;;;;496394;28;1327;-80